sensor_id;sensor_type;location;lat;lon;timestamp;pressure;altitude;pressure_sealevel;temperature;humidity
52469;BME280;38381;53.688;10.776;2023-01-26T00:03:34;102112.03;;;-2.64;94.34
52469;BME280;38381;53.688;10.776;2023-01-26T00:08:39;102109.97;;;-2.57;94.78
52469;BME280;38381;53.688;10.776;2023-01-26T00:13:41;102091.06;;;-2.61;94.42
52469;BME280;38381;53.688;10.776;2023-01-26T00:18:41;102101.13;;;-2.63;95.18
52469;BME280;38381;53.688;10.776;2023-01-26T00:23:42;102091.47;;;-2.67;95.53
52469;BME280;38381;53.688;10.776;2023-01-26T00:28:43;102090.84;;;-2.74;96.55
52469;BME280;38381;53.688;10.776;2023-01-26T00:33:44;102087.47;;;-2.53;96.02
52469;BME280;38381;53.688;10.776;2023-01-26T00:38:44;102086.97;;;-2.49;95.91
52469;BME280;38381;53.688;10.776;2023-01-26T00:43:45;102078.34;;;-2.61;96.77
52469;BME280;38381;53.688;10.776;2023-01-26T00:48:45;102066.38;;;-2.41;95.74
52469;BME280;38381;53.688;10.776;2023-01-26T00:53:46;102067.44;;;-2.60;96.73
52469;BME280;38381;53.688;10.776;2023-01-26T00:58:46;102057.66;;;-2.55;96.65
52469;BME280;38381;53.688;10.776;2023-01-26T01:03:47;102058.94;;;-2.50;97.32
52469;BME280;38381;53.688;10.776;2023-01-26T01:08:49;102051.00;;;-2.43;96.72
52469;BME280;38381;53.688;10.776;2023-01-26T01:13:50;102057.09;;;-2.41;97.23
52469;BME280;38381;53.688;10.776;2023-01-26T01:18:54;102055.97;;;-2.45;97.04
52469;BME280;38381;53.688;10.776;2023-01-26T01:23:55;102051.16;;;-2.41;97.36
52469;BME280;38381;53.688;10.776;2023-01-26T01:28:55;102052.50;;;-2.35;97.59
52469;BME280;38381;53.688;10.776;2023-01-26T01:33:56;102047.94;;;-2.39;97.71
52469;BME280;38381;53.688;10.776;2023-01-26T01:38:57;102042.56;;;-2.64;98.26
52469;BME280;38381;53.688;10.776;2023-01-26T01:44:18;102040.38;;;-2.49;98.48
52469;BME280;38381;53.688;10.776;2023-01-26T01:54:36;102044.22;;;-2.54;98.87
52469;BME280;38381;53.688;10.776;2023-01-26T01:59:38;102041.22;;;-2.38;98.74
52469;BME280;38381;53.688;10.776;2023-01-26T02:04:40;102034.97;;;-2.32;98.15
52469;BME280;38381;53.688;10.776;2023-01-26T02:09:40;102024.22;;;-2.39;98.33
52469;BME280;38381;53.688;10.776;2023-01-26T02:15:00;102012.69;;;-2.24;98.08
52469;BME280;38381;53.688;10.776;2023-01-26T02:25:17;101996.44;;;-2.26;97.39
52469;BME280;38381;53.688;10.776;2023-01-26T02:30:21;102003.94;;;-2.06;97.55
52469;BME280;38381;53.688;10.776;2023-01-26T02:35:21;101994.38;;;-1.98;96.88
52469;BME280;38381;53.688;10.776;2023-01-26T02:40:39;102000.53;;;-2.06;97.17
52469;BME280;38381;53.688;10.776;2023-01-26T02:45:42;102003.00;;;-1.96;96.99
52469;BME280;38381;53.688;10.776;2023-01-26T02:50:43;101995.09;;;-1.89;96.78
52469;BME280;38381;53.688;10.776;2023-01-26T02:55:43;101995.56;;;-1.83;96.54
52469;BME280;38381;53.688;10.776;2023-01-26T03:00:44;101996.72;;;-1.89;96.77
52469;BME280;38381;53.688;10.776;2023-01-26T03:05:44;101993.56;;;-1.87;96.27
52469;BME280;38381;53.688;10.776;2023-01-26T03:10:45;101989.03;;;-1.79;96.58
52469;BME280;38381;53.688;10.776;2023-01-26T03:15:46;101973.63;;;-1.70;96.42
52469;BME280;38381;53.688;10.776;2023-01-26T03:20:51;101967.00;;;-1.68;96.42
52469;BME280;38381;53.688;10.776;2023-01-26T03:26:10;101962.78;;;-1.68;95.83
52469;BME280;38381;53.688;10.776;2023-01-26T03:31:29;101967.59;;;-1.83;97.06
52469;BME280;38381;53.688;10.776;2023-01-26T03:36:29;101965.53;;;-1.76;96.81
52469;BME280;38381;53.688;10.776;2023-01-26T03:41:30;101968.16;;;-1.75;97.20
52469;BME280;38381;53.688;10.776;2023-01-26T03:46:49;101957.09;;;-1.75;96.77
52469;BME280;38381;53.688;10.776;2023-01-26T03:52:08;101955.81;;;-1.70;96.84
52469;BME280;38381;53.688;10.776;2023-01-26T03:57:28;101955.47;;;-1.63;97.05
52469;BME280;38381;53.688;10.776;2023-01-26T04:02:28;101949.81;;;-1.71;96.41
52469;BME280;38381;53.688;10.776;2023-01-26T04:07:47;101951.94;;;-1.65;96.60
52469;BME280;38381;53.688;10.776;2023-01-26T04:13:06;101960.44;;;-1.76;97.29
52469;BME280;38381;53.688;10.776;2023-01-26T04:18:25;101963.19;;;-1.73;96.84
52469;BME280;38381;53.688;10.776;2023-01-26T04:23:44;101959.28;;;-1.58;96.23
52469;BME280;38381;53.688;10.776;2023-01-26T04:28:44;101954.72;;;-1.62;96.95
52469;BME280;38381;53.688;10.776;2023-01-26T04:33:45;101958.91;;;-1.63;97.03
52469;BME280;38381;53.688;10.776;2023-01-26T04:38:46;101957.09;;;-1.75;97.46
52469;BME280;38381;53.688;10.776;2023-01-26T04:43:47;101951.84;;;-1.55;96.86
52469;BME280;38381;53.688;10.776;2023-01-26T04:48:47;101943.00;;;-1.60;96.83
52469;BME280;38381;53.688;10.776;2023-01-26T04:53:48;101941.22;;;-1.61;97.14
52469;BME280;38381;53.688;10.776;2023-01-26T04:58:50;101930.59;;;-1.67;97.15
52469;BME280;38381;53.688;10.776;2023-01-26T05:03:50;101931.59;;;-1.65;97.19
52469;BME280;38381;53.688;10.776;2023-01-26T05:08:51;101933.06;;;-1.57;96.88
52469;BME280;38381;53.688;10.776;2023-01-26T05:13:52;101933.16;;;-1.55;97.01
52469;BME280;38381;53.688;10.776;2023-01-26T05:18:53;101927.66;;;-1.50;96.80
52469;BME280;38381;53.688;10.776;2023-01-26T05:23:54;101924.50;;;-1.69;97.11
52469;BME280;38381;53.688;10.776;2023-01-26T05:28:54;101921.13;;;-1.58;97.19
52469;BME280;38381;53.688;10.776;2023-01-26T05:33:54;101924.66;;;-1.44;96.90
52469;BME280;38381;53.688;10.776;2023-01-26T05:38:55;101922.78;;;-1.47;97.28
52469;BME280;38381;53.688;10.776;2023-01-26T05:43:55;101925.66;;;-1.42;97.05
52469;BME280;38381;53.688;10.776;2023-01-26T05:48:56;101932.84;;;-1.36;96.48
52469;BME280;38381;53.688;10.776;2023-01-26T05:53:56;101928.88;;;-1.45;96.62
52469;BME280;38381;53.688;10.776;2023-01-26T05:58:56;101932.09;;;-1.35;96.55
52469;BME280;38381;53.688;10.776;2023-01-26T06:03:57;101936.16;;;-1.49;96.59
52469;BME280;38381;53.688;10.776;2023-01-26T06:08:57;101935.75;;;-1.44;96.76
52469;BME280;38381;53.688;10.776;2023-01-26T06:13:58;101936.84;;;-1.40;96.84
52469;BME280;38381;53.688;10.776;2023-01-26T06:18:58;101943.47;;;-1.54;97.29
52469;BME280;38381;53.688;10.776;2023-01-26T06:23:59;101933.72;;;-1.59;97.79
52469;BME280;38381;53.688;10.776;2023-01-26T06:28:59;101935.84;;;-1.54;98.40
52469;BME280;38381;53.688;10.776;2023-01-26T06:33:59;101939.59;;;-1.49;98.16
52469;BME280;38381;53.688;10.776;2023-01-26T06:39:00;101938.59;;;-1.51;98.66
52469;BME280;38381;53.688;10.776;2023-01-26T06:44:00;101939.47;;;-1.50;98.46
52469;BME280;38381;53.688;10.776;2023-01-26T06:49:01;101943.59;;;-1.40;97.88
52469;BME280;38381;53.688;10.776;2023-01-26T06:54:02;101939.94;;;-1.32;97.36
52469;BME280;38381;53.688;10.776;2023-01-26T06:59:03;101932.84;;;-1.48;98.30
52469;BME280;38381;53.688;10.776;2023-01-26T07:04:04;101947.56;;;-1.32;98.05
52469;BME280;38381;53.688;10.776;2023-01-26T07:09:05;101956.56;;;-1.37;97.79
52469;BME280;38381;53.688;10.776;2023-01-26T07:14:05;101957.66;;;-1.22;97.44
52469;BME280;38381;53.688;10.776;2023-01-26T07:19:06;101952.81;;;-1.19;97.10
52469;BME280;38381;53.688;10.776;2023-01-26T07:24:08;101956.66;;;-1.24;97.08
52469;BME280;38381;53.688;10.776;2023-01-26T07:29:08;101958.78;;;-1.18;96.97
52469;BME280;38381;53.688;10.776;2023-01-26T07:34:09;101955.91;;;-1.23;97.13
52469;BME280;38381;53.688;10.776;2023-01-26T07:39:10;101954.91;;;-1.25;97.08
52469;BME280;38381;53.688;10.776;2023-01-26T07:44:10;101961.09;;;-1.22;97.35
52469;BME280;38381;53.688;10.776;2023-01-26T07:49:11;101961.75;;;-1.24;97.64
52469;BME280;38381;53.688;10.776;2023-01-26T07:54:11;101960.97;;;-1.11;97.17
52469;BME280;38381;53.688;10.776;2023-01-26T07:59:12;101967.63;;;-1.13;97.14
52469;BME280;38381;53.688;10.776;2023-01-26T08:04:12;101966.31;;;-1.08;97.05
52469;BME280;38381;53.688;10.776;2023-01-26T08:09:13;101959.66;;;-1.18;97.75
52469;BME280;38381;53.688;10.776;2023-01-26T08:14:13;101959.00;;;-1.27;97.98
52469;BME280;38381;53.688;10.776;2023-01-26T08:19:13;101957.34;;;-1.15;97.93
52469;BME280;38381;53.688;10.776;2023-01-26T08:24:14;101944.84;;;-1.00;97.94
52469;BME280;38381;53.688;10.776;2023-01-26T08:29:14;101948.16;;;-1.01;97.20
52469;BME280;38381;53.688;10.776;2023-01-26T08:34:15;101967.31;;;-0.94;97.31
52469;BME280;38381;53.688;10.776;2023-01-26T08:39:15;101968.53;;;-0.89;96.47
52469;BME280;38381;53.688;10.776;2023-01-26T08:44:15;101976.72;;;-0.93;97.24
52469;BME280;38381;53.688;10.776;2023-01-26T08:49:16;101970.31;;;-0.88;97.37
52469;BME280;38381;53.688;10.776;2023-01-26T08:54:16;101973.06;;;-0.85;96.88
52469;BME280;38381;53.688;10.776;2023-01-26T08:59:17;101968.31;;;-0.92;97.35
52469;BME280;38381;53.688;10.776;2023-01-26T09:04:17;101964.66;;;-0.84;97.45
52469;BME280;38381;53.688;10.776;2023-01-26T09:09:17;101968.75;;;-0.86;97.74
52469;BME280;38381;53.688;10.776;2023-01-26T09:14:18;101982.69;;;-0.81;97.51
52469;BME280;38381;53.688;10.776;2023-01-26T09:19:18;101977.16;;;-0.75;97.96
52469;BME280;38381;53.688;10.776;2023-01-26T09:24:20;101974.06;;;-0.83;97.68
52469;BME280;38381;53.688;10.776;2023-01-26T09:29:20;101974.41;;;-0.90;98.01
52469;BME280;38381;53.688;10.776;2023-01-26T09:34:21;101975.59;;;-0.85;98.98
52469;BME280;38381;53.688;10.776;2023-01-26T09:39:21;101972.31;;;-0.84;99.19
52469;BME280;38381;53.688;10.776;2023-01-26T09:44:23;101968.28;;;-0.81;98.88
52469;BME280;38381;53.688;10.776;2023-01-26T09:49:25;101967.22;;;-0.84;99.12
52469;BME280;38381;53.688;10.776;2023-01-26T09:54:34;101961.31;;;-0.83;99.52
52469;BME280;38381;53.688;10.776;2023-01-26T09:59:45;101958.97;;;-0.56;99.08
52469;BME280;38381;53.688;10.776;2023-01-26T10:04:50;101955.53;;;-0.57;98.60
52469;BME280;38381;53.688;10.776;2023-01-26T10:09:52;101956.97;;;-0.49;98.77
52469;BME280;38381;53.688;10.776;2023-01-26T10:15:06;101952.69;;;-0.62;99.01
52469;BME280;38381;53.688;10.776;2023-01-26T10:20:32;101954.06;;;-0.42;98.81
52469;BME280;38381;53.688;10.776;2023-01-26T10:25:38;101947.53;;;-0.38;98.60
52469;BME280;38381;53.688;10.776;2023-01-26T10:30:40;101947.19;;;-0.31;98.45
52469;BME280;38381;53.688;10.776;2023-01-26T10:35:41;101934.06;;;-0.24;98.84
52469;BME280;38381;53.688;10.776;2023-01-26T10:40:42;101929.19;;;-0.21;98.01
52469;BME280;38381;53.688;10.776;2023-01-26T10:45:45;101926.50;;;-0.10;98.05
52469;BME280;38381;53.688;10.776;2023-01-26T10:50:47;101929.81;;;-0.11;98.17
52469;BME280;38381;53.688;10.776;2023-01-26T10:56:04;101917.84;;;-0.12;98.04
52469;BME280;38381;53.688;10.776;2023-01-26T11:01:05;101910.44;;;-0.21;98.77
52469;BME280;38381;53.688;10.776;2023-01-26T11:06:16;101904.53;;;-0.08;98.91
52469;BME280;38381;53.688;10.776;2023-01-26T11:11:34;101894.81;;;-0.01;98.32
52469;BME280;38381;53.688;10.776;2023-01-26T11:16:35;101903.53;;;0.15;98.41
52469;BME280;38381;53.688;10.776;2023-01-26T11:27:05;101903.47;;;0.27;97.61
52469;BME280;38381;53.688;10.776;2023-01-26T11:37:42;101903.47;;;0.27;97.57
52469;BME280;38381;53.688;10.776;2023-01-26T11:42:57;101885.59;;;0.27;98.13
52469;BME280;38381;53.688;10.776;2023-01-26T12:03:49;101882.38;;;0.43;97.66
52469;BME280;38381;53.688;10.776;2023-01-26T12:08:55;101863.34;;;0.37;98.78
52469;BME280;38381;53.688;10.776;2023-01-26T12:19:34;101863.03;;;0.46;98.83
52469;BME280;38381;53.688;10.776;2023-01-26T12:24:40;101855.59;;;0.49;98.57
52469;BME280;38381;53.688;10.776;2023-01-26T12:29:50;101850.97;;;0.57;99.15
52469;BME280;38381;53.688;10.776;2023-01-26T12:34:51;101829.97;;;0.61;99.69
52469;BME280;38381;53.688;10.776;2023-01-26T12:40:09;101825.94;;;0.65;99.42
52469;BME280;38381;53.688;10.776;2023-01-26T12:45:20;101810.91;;;0.69;99.03
52469;BME280;38381;53.688;10.776;2023-01-26T12:50:38;101820.47;;;0.72;98.99
52469;BME280;38381;53.688;10.776;2023-01-26T12:55:44;101824.97;;;0.76;99.72
52469;BME280;38381;53.688;10.776;2023-01-26T13:00:59;101816.78;;;0.82;99.57
52469;BME280;38381;53.688;10.776;2023-01-26T13:11:08;101807.75;;;0.87;100.00
52469;BME280;38381;53.688;10.776;2023-01-26T13:31:40;101812.75;;;0.98;100.00
52469;BME280;38381;53.688;10.776;2023-01-26T13:36:42;101819.03;;;1.04;100.00
52469;BME280;38381;53.688;10.776;2023-01-26T13:41:46;101823.81;;;1.12;99.91
52469;BME280;38381;53.688;10.776;2023-01-26T13:46:54;101825.59;;;1.13;100.00
52469;BME280;38381;53.688;10.776;2023-01-26T13:51:57;101829.88;;;1.14;100.00
52469;BME280;38381;53.688;10.776;2023-01-26T13:57:00;101830.09;;;1.17;99.89
52469;BME280;38381;53.688;10.776;2023-01-26T14:02:01;101832.94;;;1.22;100.00
52469;BME280;38381;53.688;10.776;2023-01-26T14:07:12;101840.69;;;1.24;100.00
52469;BME280;38381;53.688;10.776;2023-01-26T14:12:28;101837.16;;;1.22;100.00
52469;BME280;38381;53.688;10.776;2023-01-26T14:17:32;101843.34;;;1.25;100.00
52469;BME280;38381;53.688;10.776;2023-01-26T14:22:33;101853.34;;;1.35;100.00
52469;BME280;38381;53.688;10.776;2023-01-26T14:27:40;101857.78;;;1.25;100.00
52469;BME280;38381;53.688;10.776;2023-01-26T14:32:41;101860.22;;;1.36;100.00
52469;BME280;38381;53.688;10.776;2023-01-26T14:37:41;101865.06;;;1.32;100.00
52469;BME280;38381;53.688;10.776;2023-01-26T14:42:42;101877.56;;;1.27;100.00
52469;BME280;38381;53.688;10.776;2023-01-26T14:47:43;101868.25;;;1.43;100.00
52469;BME280;38381;53.688;10.776;2023-01-26T14:52:45;101872.75;;;1.47;100.00
52469;BME280;38381;53.688;10.776;2023-01-26T14:57:45;101862.38;;;1.44;100.00
52469;BME280;38381;53.688;10.776;2023-01-26T15:02:47;101868.84;;;1.52;100.00
52469;BME280;38381;53.688;10.776;2023-01-26T15:07:59;101876.88;;;1.58;100.00
52469;BME280;38381;53.688;10.776;2023-01-26T15:23:31;101879.50;;;1.59;100.00
52469;BME280;38381;53.688;10.776;2023-01-26T15:28:32;101889.44;;;1.68;100.00
52469;BME280;38381;53.688;10.776;2023-01-26T15:33:50;101891.56;;;1.75;100.00
52469;BME280;38381;53.688;10.776;2023-01-26T15:38:58;101900.81;;;1.73;100.00
52469;BME280;38381;53.688;10.776;2023-01-26T15:43:59;101884.38;;;1.70;100.00
52469;BME280;38381;53.688;10.776;2023-01-26T15:48:59;101893.34;;;1.76;100.00
52469;BME280;38381;53.688;10.776;2023-01-26T15:53:59;101901.78;;;1.75;100.00
52469;BME280;38381;53.688;10.776;2023-01-26T15:59:00;101893.34;;;1.76;100.00
52469;BME280;38381;53.688;10.776;2023-01-26T16:04:00;101892.72;;;1.80;100.00
52469;BME280;38381;53.688;10.776;2023-01-26T16:09:01;101880.00;;;1.82;100.00
52469;BME280;38381;53.688;10.776;2023-01-26T16:14:01;101883.75;;;1.87;100.00
52469;BME280;38381;53.688;10.776;2023-01-26T16:19:02;101886.81;;;1.81;100.00
52469;BME280;38381;53.688;10.776;2023-01-26T16:24:02;101886.28;;;1.87;100.00
52469;BME280;38381;53.688;10.776;2023-01-26T16:29:03;101893.81;;;1.99;100.00
52469;BME280;38381;53.688;10.776;2023-01-26T16:34:03;101892.25;;;2.01;100.00
52469;BME280;38381;53.688;10.776;2023-01-26T16:39:04;101896.38;;;1.99;100.00
52469;BME280;38381;53.688;10.776;2023-01-26T16:44:13;101902.47;;;2.01;100.00
52469;BME280;38381;53.688;10.776;2023-01-26T16:49:14;101894.00;;;2.02;100.00
52469;BME280;38381;53.688;10.776;2023-01-26T16:54:14;101901.88;;;2.05;100.00
52469;BME280;38381;53.688;10.776;2023-01-26T16:59:15;101903.00;;;2.10;100.00
52469;BME280;38381;53.688;10.776;2023-01-26T17:04:15;101902.22;;;2.11;100.00
52469;BME280;38381;53.688;10.776;2023-01-26T17:09:16;101910.06;;;2.14;100.00
52469;BME280;38381;53.688;10.776;2023-01-26T17:14:16;101912.53;;;2.13;100.00
52469;BME280;38381;53.688;10.776;2023-01-26T17:19:16;101903.00;;;2.10;100.00
52469;BME280;38381;53.688;10.776;2023-01-26T17:24:17;101907.34;;;2.11;100.00
52469;BME280;38381;53.688;10.776;2023-01-26T17:29:17;101904.94;;;2.14;100.00
52469;BME280;38381;53.688;10.776;2023-01-26T17:34:18;101906.03;;;2.18;100.00
52469;BME280;38381;53.688;10.776;2023-01-26T17:39:20;101912.81;;;2.17;100.00
52469;BME280;38381;53.688;10.776;2023-01-26T17:44:22;101920.88;;;2.24;100.00
52469;BME280;38381;53.688;10.776;2023-01-26T17:49:22;101924.56;;;2.29;100.00
52469;BME280;38381;53.688;10.776;2023-01-26T17:54:24;101927.56;;;2.21;100.00
52469;BME280;38381;53.688;10.776;2023-01-26T17:59:24;101928.72;;;2.27;100.00
52469;BME280;38381;53.688;10.776;2023-01-26T18:04:25;101938.94;;;2.27;100.00
52469;BME280;38381;53.688;10.776;2023-01-26T18:09:25;101941.78;;;2.31;100.00
52469;BME280;38381;53.688;10.776;2023-01-26T18:14:26;101948.78;;;2.34;100.00
52469;BME280;38381;53.688;10.776;2023-01-26T18:19:26;101947.00;;;2.33;100.00
52469;BME280;38381;53.688;10.776;2023-01-26T18:24:27;101952.31;;;2.36;100.00
52469;BME280;38381;53.688;10.776;2023-01-26T18:29:27;101951.22;;;2.32;100.00
52469;BME280;38381;53.688;10.776;2023-01-26T18:34:28;101955.91;;;2.39;100.00
52469;BME280;38381;53.688;10.776;2023-01-26T18:39:28;101961.31;;;2.44;100.00
52469;BME280;38381;53.688;10.776;2023-01-26T18:44:29;101960.16;;;2.54;100.00
52469;BME280;38381;53.688;10.776;2023-01-26T18:49:29;101972.19;;;2.55;100.00
52469;BME280;38381;53.688;10.776;2023-01-26T18:54:30;101960.88;;;2.51;100.00
52469;BME280;38381;53.688;10.776;2023-01-26T18:59:31;101966.25;;;2.56;100.00
52469;BME280;38381;53.688;10.776;2023-01-26T19:04:32;101971.47;;;2.57;100.00
52469;BME280;38381;53.688;10.776;2023-01-26T19:09:32;101977.75;;;2.63;100.00
52469;BME280;38381;53.688;10.776;2023-01-26T19:14:34;101983.03;;;2.66;100.00
52469;BME280;38381;53.688;10.776;2023-01-26T19:19:35;101985.00;;;2.70;100.00
52469;BME280;38381;53.688;10.776;2023-01-26T19:24:35;101987.38;;;2.67;100.00
52469;BME280;38381;53.688;10.776;2023-01-26T19:29:36;101994.47;;;2.71;100.00
52469;BME280;38381;53.688;10.776;2023-01-26T19:34:36;101998.78;;;2.72;100.00
52469;BME280;38381;53.688;10.776;2023-01-26T19:39:37;102005.13;;;2.78;100.00
52469;BME280;38381;53.688;10.776;2023-01-26T19:44:37;101996.56;;;2.78;100.00
52469;BME280;38381;53.688;10.776;2023-01-26T19:49:37;101994.88;;;2.78;100.00
52469;BME280;38381;53.688;10.776;2023-01-26T19:54:38;101996.66;;;2.79;100.00
52469;BME280;38381;53.688;10.776;2023-01-26T19:59:38;102002.75;;;2.81;100.00
52469;BME280;38381;53.688;10.776;2023-01-26T20:04:38;101998.41;;;2.80;100.00
52469;BME280;38381;53.688;10.776;2023-01-26T20:09:39;102001.31;;;2.87;100.00
52469;BME280;38381;53.688;10.776;2023-01-26T20:14:39;102002.84;;;2.98;100.00
52469;BME280;38381;53.688;10.776;2023-01-26T20:19:40;102007.16;;;2.99;100.00
52469;BME280;38381;53.688;10.776;2023-01-26T20:24:40;102002.94;;;2.99;100.00
52469;BME280;38381;53.688;10.776;2023-01-26T20:29:41;102010.00;;;3.04;100.00
52469;BME280;38381;53.688;10.776;2023-01-26T20:34:42;101998.78;;;3.01;100.00
52469;BME280;38381;53.688;10.776;2023-01-26T20:39:44;102002.13;;;3.00;100.00
52469;BME280;38381;53.688;10.776;2023-01-26T20:44:44;102007.44;;;3.04;100.00
52469;BME280;38381;53.688;10.776;2023-01-26T20:49:45;102000.44;;;3.01;100.00
52469;BME280;38381;53.688;10.776;2023-01-26T20:54:45;102005.66;;;3.02;100.00
52469;BME280;38381;53.688;10.776;2023-01-26T20:59:46;102009.91;;;3.02;100.00
52469;BME280;38381;53.688;10.776;2023-01-26T21:04:46;102005.84;;;3.06;100.00
52469;BME280;38381;53.688;10.776;2023-01-26T21:09:46;102014.50;;;3.08;100.00
52469;BME280;38381;53.688;10.776;2023-01-26T21:14:47;102014.03;;;3.15;100.00
52469;BME280;38381;53.688;10.776;2023-01-26T21:19:47;102013.44;;;3.19;99.67
52469;BME280;38381;53.688;10.776;2023-01-26T21:24:48;102020.75;;;3.13;99.77
52469;BME280;38381;53.688;10.776;2023-01-26T21:29:48;102013.28;;;3.16;99.85
52469;BME280;38381;53.688;10.776;2023-01-26T21:34:49;102015.72;;;3.14;99.42
52469;BME280;38381;53.688;10.776;2023-01-26T21:39:49;102019.78;;;3.26;99.27
52469;BME280;38381;53.688;10.776;2023-01-26T21:44:49;102012.19;;;3.27;99.08
52469;BME280;38381;53.688;10.776;2023-01-26T21:50:09;102027.75;;;3.30;98.58
52469;BME280;38381;53.688;10.776;2023-01-26T21:55:09;102022.16;;;3.37;97.91
52469;BME280;38381;53.688;10.776;2023-01-26T22:00:10;102033.72;;;3.46;98.01
52469;BME280;38381;53.688;10.776;2023-01-26T22:05:11;102033.00;;;3.48;97.45
52469;BME280;38381;53.688;10.776;2023-01-26T22:10:11;102035.31;;;3.43;98.02
52469;BME280;38381;53.688;10.776;2023-01-26T22:15:12;102029.56;;;3.48;98.60
52469;BME280;38381;53.688;10.776;2023-01-26T22:20:13;102043.25;;;3.48;98.91
52469;BME280;38381;53.688;10.776;2023-01-26T22:25:13;102051.91;;;3.50;98.94
52469;BME280;38381;53.688;10.776;2023-01-26T22:30:15;102050.41;;;3.54;98.49
52469;BME280;38381;53.688;10.776;2023-01-26T22:35:15;102051.38;;;3.56;99.07
52469;BME280;38381;53.688;10.776;2023-01-26T22:40:16;102055.66;;;3.55;99.31
52469;BME280;38381;53.688;10.776;2023-01-26T22:45:17;102055.56;;;3.54;100.00
52469;BME280;38381;53.688;10.776;2023-01-26T22:50:17;102056.72;;;3.44;100.00
52469;BME280;38381;53.688;10.776;2023-01-26T22:55:18;102060.44;;;3.49;100.00
52469;BME280;38381;53.688;10.776;2023-01-26T23:00:18;102057.88;;;3.49;100.00
52469;BME280;38381;53.688;10.776;2023-01-26T23:05:19;102063.00;;;3.49;100.00
52469;BME280;38381;53.688;10.776;2023-01-26T23:10:19;102054.78;;;3.55;100.00
52469;BME280;38381;53.688;10.776;2023-01-26T23:15:20;102062.81;;;3.46;100.00
52469;BME280;38381;53.688;10.776;2023-01-26T23:20:21;102060.44;;;3.49;100.00
52469;BME280;38381;53.688;10.776;2023-01-26T23:25:21;102051.66;;;3.46;100.00
52469;BME280;38381;53.688;10.776;2023-01-26T23:30:40;102048.47;;;3.50;100.00
52469;BME280;38381;53.688;10.776;2023-01-26T23:35:41;102046.97;;;3.53;100.00
52469;BME280;38381;53.688;10.776;2023-01-26T23:40:42;102055.31;;;3.49;100.00
52469;BME280;38381;53.688;10.776;2023-01-26T23:45:45;102052.25;;;3.56;100.00
52469;BME280;38381;53.688;10.776;2023-01-26T23:50:45;102057.97;;;3.51;100.00
52469;BME280;38381;53.688;10.776;2023-01-26T23:55:46;102064.84;;;3.52;100.00
